This is the latest recevied weather packets stored in our database for station/object KD8ZLZ-13. If no packets are shown the sender has not sent any weather packets the latest 10 day(s).
| Time | Temp. | Humidity | Pressure | Rain* | Wind** | Luminosity | Snow |
|---|---|---|---|---|---|---|---|
| 1778010641 | 12.22° C | 60% | 1009.2 hPa | 0 mm | - | 197 W/m² | - |
| 1778010041 | 12.78° C | 60% | 1009.2 hPa | 0 mm | - | 201 W/m² | - |
| 1777994583 | 15° C | 50% | 1007.1 hPa | 0 mm | - | 0 W/m² | - |
| 1777993983 | 15° C | 49% | 1007.1 hPa | 0 mm | - | 0 W/m² | - |
| 1777993383 | 15° C | 49% | 1007.1 hPa | 0 mm | - | 0 W/m² | - |
| 1777992783 | 15° C | 50% | 1007.1 hPa | 0 mm | - | 0 W/m² | - |
| 1777992183 | 15° C | 48% | 1006.7 hPa | 0 mm | - | 0 W/m² | - |
| 1777991583 | 15.56° C | 47% | 1006.4 hPa | 0 mm | - | 0 W/m² | - |
| 1777990983 | 15.56° C | 46% | 1006.4 hPa | 0 mm | - | 0 W/m² | - |
| 1777990383 | 16.11° C | 48% | 1006.1 hPa | 0 mm | - | 0 W/m² | - |
| 1777989783 | 16.11° C | 54% | 1005.7 hPa | 0 mm | - | 0 W/m² | - |
| 1777989183 | 16.11° C | 62% | 1005.7 hPa | 0 mm | - | 0 W/m² | - |
| 1777988583 | 15.56° C | 63% | 1006.1 hPa | 0 mm | - | 0 W/m² | - |
| 1777987983 | 15° C | 64% | 1006.1 hPa | 0 mm | - | 0 W/m² | - |
| 1777987383 | 15.56° C | 65% | 1005.1 hPa | 0 mm | - | 0 W/m² | - |
| 1777986783 | 15.56° C | 64% | 1004.7 hPa | 0 mm | - | 0 W/m² | - |
| 1777986183 | 15.56° C | 65% | 1004.7 hPa | 0 mm | - | 0 W/m² | - |
| 1777985583 | 15.56° C | 69% | 1005.1 hPa | 0 mm | - | 0 W/m² | - |
| 1777984983 | 15° C | 72% | 1005.4 hPa | 0 mm | - | 0 W/m² | - |
| 1777984383 | 15° C | 77% | 1005.1 hPa | 0 mm | - | 0 W/m² | - |
| 1777983783 | 14.44° C | 81% | 1005.1 hPa | 0 mm | - | 0 W/m² | - |
| 1777983183 | 14.44° C | 83% | 1005.1 hPa | 0 mm | - | 0 W/m² | - |
| 1777982583 | 13.89° C | 84% | 1004.7 hPa | 0 mm | - | 0 W/m² | - |
| 1777981983 | 13.89° C | 84% | 1004.4 hPa | 0 mm | - | 0 W/m² | - |
| 1777981383 | 13.89° C | 84% | 1004.4 hPa | 0 mm | - | 0 W/m² | - |
* Rain latest hour (hover to see other rain measurements)
** Current wind speed in m/s (hover to see current wind gust speed)